sensor_id;sensor_type;location;lat;lon;timestamp;P1;durP1;ratioP1;P2;durP2;ratioP2
8564;SDS011;4320;51.498;6.556;2022-11-15T00:01:47;9.98;;;8.10;;
8564;SDS011;4320;51.498;6.556;2022-11-15T00:04:13;12.95;;;8.63;;
8564;SDS011;4320;51.498;6.556;2022-11-15T00:06:45;10.88;;;8.65;;
8564;SDS011;4320;51.498;6.556;2022-11-15T00:09:11;14.38;;;8.65;;
8564;SDS011;4320;51.498;6.556;2022-11-15T00:11:36;12.80;;;8.77;;
8564;SDS011;4320;51.498;6.556;2022-11-15T00:14:02;14.50;;;8.88;;
8564;SDS011;4320;51.498;6.556;2022-11-15T00:16:28;14.25;;;9.30;;
8564;SDS011;4320;51.498;6.556;2022-11-15T00:18:53;11.05;;;8.13;;
8564;SDS011;4320;51.498;6.556;2022-11-15T00:21:19;11.27;;;8.57;;
8564;SDS011;4320;51.498;6.556;2022-11-15T00:23:45;12.07;;;8.93;;
8564;SDS011;4320;51.498;6.556;2022-11-15T00:26:11;14.20;;;9.30;;
8564;SDS011;4320;51.498;6.556;2022-11-15T00:28:38;11.75;;;8.65;;
8564;SDS011;4320;51.498;6.556;2022-11-15T00:31:04;12.55;;;9.68;;
8564;SDS011;4320;51.498;6.556;2022-11-15T00:33:31;11.13;;;8.75;;
8564;SDS011;4320;51.498;6.556;2022-11-15T00:36:04;15.68;;;9.55;;
8564;SDS011;4320;51.498;6.556;2022-11-15T00:38:32;14.35;;;8.90;;
8564;SDS011;4320;51.498;6.556;2022-11-15T00:40:59;11.23;;;8.48;;
8564;SDS011;4320;51.498;6.556;2022-11-15T00:43:25;14.65;;;9.32;;
8564;SDS011;4320;51.498;6.556;2022-11-15T00:45:51;13.95;;;8.43;;
8564;SDS011;4320;51.498;6.556;2022-11-15T00:48:17;12.68;;;8.75;;
8564;SDS011;4320;51.498;6.556;2022-11-15T00:50:42;12.10;;;9.38;;
8564;SDS011;4320;51.498;6.556;2022-11-15T00:53:08;12.88;;;9.57;;
8564;SDS011;4320;51.498;6.556;2022-11-15T00:55:34;13.07;;;9.70;;
8564;SDS011;4320;51.498;6.556;2022-11-15T00:57:59;10.77;;;8.73;;
8564;SDS011;4320;51.498;6.556;2022-11-15T01:00:25;12.55;;;8.35;;
8564;SDS011;4320;51.498;6.556;2022-11-15T01:02:51;12.07;;;8.85;;
8564;SDS011;4320;51.498;6.556;2022-11-15T01:05:16;11.27;;;8.32;;
8564;SDS011;4320;51.498;6.556;2022-11-15T01:07:42;10.52;;;8.10;;
8564;SDS011;4320;51.498;6.556;2022-11-15T01:10:08;13.18;;;8.65;;
8564;SDS011;4320;51.498;6.556;2022-11-15T01:12:33;11.65;;;8.02;;
8564;SDS011;4320;51.498;6.556;2022-11-15T01:14:59;12.88;;;8.82;;
8564;SDS011;4320;51.498;6.556;2022-11-15T01:17:25;11.05;;;7.80;;
8564;SDS011;4320;51.498;6.556;2022-11-15T01:19:50;10.45;;;8.07;;
8564;SDS011;4320;51.498;6.556;2022-11-15T01:22:16;11.48;;;8.48;;
8564;SDS011;4320;51.498;6.556;2022-11-15T01:24:42;11.63;;;8.27;;
8564;SDS011;4320;51.498;6.556;2022-11-15T01:27:07;12.77;;;8.48;;
8564;SDS011;4320;51.498;6.556;2022-11-15T01:29:33;9.82;;;7.95;;
8564;SDS011;4320;51.498;6.556;2022-11-15T01:31:59;10.90;;;8.57;;
8564;SDS011;4320;51.498;6.556;2022-11-15T01:34:25;13.20;;;8.85;;
8564;SDS011;4320;51.498;6.556;2022-11-15T01:36:51;10.95;;;8.82;;
8564;SDS011;4320;51.498;6.556;2022-11-15T01:39:16;12.10;;;8.38;;
8564;SDS011;4320;51.498;6.556;2022-11-15T01:41:42;12.68;;;8.30;;
8564;SDS011;4320;51.498;6.556;2022-11-15T01:46:55;10.70;;;7.72;;
8564;SDS011;4320;51.498;6.556;2022-11-15T01:49:22;12.57;;;7.85;;
8564;SDS011;4320;51.498;6.556;2022-11-15T01:51:49;12.60;;;7.80;;
8564;SDS011;4320;51.498;6.556;2022-11-15T01:54:16;12.73;;;8.27;;
8564;SDS011;4320;51.498;6.556;2022-11-15T01:56:52;11.43;;;8.25;;
8564;SDS011;4320;51.498;6.556;2022-11-15T01:59:22;11.23;;;8.18;;
8564;SDS011;4320;51.498;6.556;2022-11-15T02:01:48;9.48;;;7.63;;
8564;SDS011;4320;51.498;6.556;2022-11-15T02:04:24;11.90;;;7.80;;
8564;SDS011;4320;51.498;6.556;2022-11-15T02:06:52;9.73;;;7.72;;
8564;SDS011;4320;51.498;6.556;2022-11-15T02:09:18;12.25;;;7.47;;
8564;SDS011;4320;51.498;6.556;2022-11-15T02:11:44;9.55;;;7.85;;
8564;SDS011;4320;51.498;6.556;2022-11-15T02:14:11;10.68;;;7.82;;
8564;SDS011;4320;51.498;6.556;2022-11-15T02:16:47;12.10;;;7.70;;
8564;SDS011;4320;51.498;6.556;2022-11-15T02:27:08;9.88;;;7.78;;
8564;SDS011;4320;51.498;6.556;2022-11-15T02:32:50;12.98;;;7.53;;
8564;SDS011;4320;51.498;6.556;2022-11-15T02:35:32;10.10;;;7.05;;
8564;SDS011;4320;51.498;6.556;2022-11-15T02:40:54;12.02;;;7.75;;
8564;SDS011;4320;51.498;6.556;2022-11-15T02:43:29;11.88;;;7.60;;
8564;SDS011;4320;51.498;6.556;2022-11-15T02:49:17;11.30;;;7.13;;
8564;SDS011;4320;51.498;6.556;2022-11-15T02:51:44;10.80;;;8.05;;
8564;SDS011;4320;51.498;6.556;2022-11-15T02:54:13;9.27;;;6.95;;
8564;SDS011;4320;51.498;6.556;2022-11-15T02:56:43;10.75;;;7.80;;
8564;SDS011;4320;51.498;6.556;2022-11-15T03:02:10;8.48;;;7.18;;
8564;SDS011;4320;51.498;6.556;2022-11-15T03:04:44;11.55;;;6.97;;
8564;SDS011;4320;51.498;6.556;2022-11-15T03:07:31;10.63;;;6.93;;
8564;SDS011;4320;51.498;6.556;2022-11-15T03:13:06;10.70;;;7.15;;
8564;SDS011;4320;51.498;6.556;2022-11-15T03:15:38;9.45;;;6.38;;
8564;SDS011;4320;51.498;6.556;2022-11-15T03:18:19;9.23;;;6.63;;
8564;SDS011;4320;51.498;6.556;2022-11-15T03:20:53;9.50;;;6.40;;
8564;SDS011;4320;51.498;6.556;2022-11-15T03:23:20;9.60;;;6.65;;
8564;SDS011;4320;51.498;6.556;2022-11-15T03:25:48;11.13;;;6.90;;
8564;SDS011;4320;51.498;6.556;2022-11-15T03:28:17;10.90;;;7.38;;
8564;SDS011;4320;51.498;6.556;2022-11-15T03:30:52;8.73;;;6.68;;
8564;SDS011;4320;51.498;6.556;2022-11-15T03:33:20;9.65;;;6.70;;
8564;SDS011;4320;51.498;6.556;2022-11-15T03:35:46;14.32;;;6.70;;
8564;SDS011;4320;51.498;6.556;2022-11-15T03:38:23;9.90;;;7.22;;
8564;SDS011;4320;51.498;6.556;2022-11-15T03:41:00;9.02;;;6.88;;
8564;SDS011;4320;51.498;6.556;2022-11-15T03:43:36;11.05;;;6.93;;
8564;SDS011;4320;51.498;6.556;2022-11-15T03:46:16;10.25;;;6.88;;
8564;SDS011;4320;51.498;6.556;2022-11-15T03:49:05;13.35;;;6.97;;
8564;SDS011;4320;51.498;6.556;2022-11-15T03:51:44;13.10;;;7.10;;
8564;SDS011;4320;51.498;6.556;2022-11-15T03:54:11;10.10;;;6.88;;
8564;SDS011;4320;51.498;6.556;2022-11-15T03:56:37;12.93;;;7.25;;
8564;SDS011;4320;51.498;6.556;2022-11-15T03:59:03;10.80;;;7.30;;
8564;SDS011;4320;51.498;6.556;2022-11-15T04:01:29;14.00;;;7.22;;
8564;SDS011;4320;51.498;6.556;2022-11-15T04:03:54;10.20;;;6.90;;
8564;SDS011;4320;51.498;6.556;2022-11-15T04:06:20;11.60;;;7.90;;
8564;SDS011;4320;51.498;6.556;2022-11-15T04:08:46;9.20;;;7.32;;
8564;SDS011;4320;51.498;6.556;2022-11-15T04:11:12;8.85;;;7.25;;
8564;SDS011;4320;51.498;6.556;2022-11-15T04:13:37;14.02;;;8.30;;
8564;SDS011;4320;51.498;6.556;2022-11-15T04:16:03;10.52;;;7.47;;
8564;SDS011;4320;51.498;6.556;2022-11-15T04:18:29;10.70;;;7.88;;
8564;SDS011;4320;51.498;6.556;2022-11-15T04:20:54;12.70;;;7.95;;
8564;SDS011;4320;51.498;6.556;2022-11-15T04:23:38;13.02;;;7.97;;
8564;SDS011;4320;51.498;6.556;2022-11-15T04:26:23;13.23;;;8.93;;
8564;SDS011;4320;51.498;6.556;2022-11-15T04:28:49;12.60;;;8.02;;
8564;SDS011;4320;51.498;6.556;2022-11-15T04:31:33;12.00;;;8.95;;
8564;SDS011;4320;51.498;6.556;2022-11-15T04:33:58;15.02;;;9.43;;
8564;SDS011;4320;51.498;6.556;2022-11-15T04:36:24;12.63;;;8.50;;
8564;SDS011;4320;51.498;6.556;2022-11-15T04:39:08;12.93;;;9.60;;
8564;SDS011;4320;51.498;6.556;2022-11-15T04:41:34;15.70;;;9.65;;
8564;SDS011;4320;51.498;6.556;2022-11-15T04:44:00;13.65;;;9.88;;
8564;SDS011;4320;51.498;6.556;2022-11-15T04:46:26;14.57;;;9.40;;
8564;SDS011;4320;51.498;6.556;2022-11-15T04:48:52;16.42;;;10.15;;
8564;SDS011;4320;51.498;6.556;2022-11-15T04:51:18;16.20;;;9.80;;
8564;SDS011;4320;51.498;6.556;2022-11-15T04:53:44;15.65;;;9.60;;
8564;SDS011;4320;51.498;6.556;2022-11-15T04:56:10;17.50;;;10.38;;
8564;SDS011;4320;51.498;6.556;2022-11-15T04:58:36;13.32;;;9.07;;
8564;SDS011;4320;51.498;6.556;2022-11-15T05:01:09;15.13;;;10.05;;
8564;SDS011;4320;51.498;6.556;2022-11-15T05:03:35;12.30;;;10.05;;
8564;SDS011;4320;51.498;6.556;2022-11-15T05:06:20;16.30;;;10.68;;
8564;SDS011;4320;51.498;6.556;2022-11-15T05:08:46;13.65;;;10.05;;
8564;SDS011;4320;51.498;6.556;2022-11-15T05:11:11;21.10;;;9.93;;
8564;SDS011;4320;51.498;6.556;2022-11-15T05:13:37;16.50;;;9.88;;
8564;SDS011;4320;51.498;6.556;2022-11-15T05:16:03;12.70;;;9.57;;
8564;SDS011;4320;51.498;6.556;2022-11-15T05:18:29;13.82;;;9.75;;
8564;SDS011;4320;51.498;6.556;2022-11-15T05:20:54;16.05;;;9.82;;
8564;SDS011;4320;51.498;6.556;2022-11-15T05:23:20;19.15;;;10.27;;
8564;SDS011;4320;51.498;6.556;2022-11-15T05:25:46;14.05;;;9.55;;
8564;SDS011;4320;51.498;6.556;2022-11-15T05:28:12;17.90;;;9.90;;
8564;SDS011;4320;51.498;6.556;2022-11-15T05:30:38;17.83;;;10.30;;
8564;SDS011;4320;51.498;6.556;2022-11-15T05:33:03;12.68;;;10.02;;
8564;SDS011;4320;51.498;6.556;2022-11-15T05:35:30;14.82;;;11.45;;
8564;SDS011;4320;51.498;6.556;2022-11-15T05:37:59;15.65;;;11.65;;
8564;SDS011;4320;51.498;6.556;2022-11-15T05:40:25;20.48;;;13.48;;
8564;SDS011;4320;51.498;6.556;2022-11-15T05:42:52;16.30;;;10.98;;
8564;SDS011;4320;51.498;6.556;2022-11-15T05:45:18;14.82;;;11.02;;
8564;SDS011;4320;51.498;6.556;2022-11-15T05:47:44;14.82;;;10.65;;
8564;SDS011;4320;51.498;6.556;2022-11-15T05:50:14;14.50;;;9.75;;
8564;SDS011;4320;51.498;6.556;2022-11-15T05:52:42;13.73;;;9.10;;
8564;SDS011;4320;51.498;6.556;2022-11-15T05:55:09;19.33;;;10.60;;
8564;SDS011;4320;51.498;6.556;2022-11-15T05:57:35;15.98;;;10.88;;
8564;SDS011;4320;51.498;6.556;2022-11-15T06:00:01;11.23;;;9.32;;
8564;SDS011;4320;51.498;6.556;2022-11-15T06:02:28;13.82;;;9.85;;
8564;SDS011;4320;51.498;6.556;2022-11-15T06:04:53;14.52;;;10.43;;
8564;SDS011;4320;51.498;6.556;2022-11-15T06:07:19;12.52;;;8.55;;
8564;SDS011;4320;51.498;6.556;2022-11-15T06:09:44;14.63;;;9.50;;
8564;SDS011;4320;51.498;6.556;2022-11-15T06:12:10;13.20;;;8.88;;
8564;SDS011;4320;51.498;6.556;2022-11-15T06:14:36;14.25;;;9.48;;
8564;SDS011;4320;51.498;6.556;2022-11-15T06:17:01;10.48;;;8.25;;
8564;SDS011;4320;51.498;6.556;2022-11-15T06:19:27;12.88;;;8.68;;
8564;SDS011;4320;51.498;6.556;2022-11-15T06:21:57;11.48;;;8.90;;
8564;SDS011;4320;51.498;6.556;2022-11-15T06:24:24;12.32;;;8.70;;
8564;SDS011;4320;51.498;6.556;2022-11-15T06:26:49;12.30;;;9.18;;
8564;SDS011;4320;51.498;6.556;2022-11-15T06:29:15;11.43;;;7.82;;
8564;SDS011;4320;51.498;6.556;2022-11-15T06:31:40;10.68;;;7.88;;
8564;SDS011;4320;51.498;6.556;2022-11-15T06:34:06;12.80;;;7.25;;
8564;SDS011;4320;51.498;6.556;2022-11-15T06:36:33;11.55;;;6.93;;
8564;SDS011;4320;51.498;6.556;2022-11-15T06:38:59;10.63;;;7.07;;
8564;SDS011;4320;51.498;6.556;2022-11-15T06:41:25;10.13;;;6.40;;
8564;SDS011;4320;51.498;6.556;2022-11-15T06:43:50;8.20;;;6.28;;
8564;SDS011;4320;51.498;6.556;2022-11-15T06:46:16;8.20;;;7.00;;
8564;SDS011;4320;51.498;6.556;2022-11-15T06:48:42;10.60;;;6.90;;
8564;SDS011;4320;51.498;6.556;2022-11-15T06:51:07;9.30;;;6.53;;
8564;SDS011;4320;51.498;6.556;2022-11-15T06:53:33;8.85;;;7.10;;
8564;SDS011;4320;51.498;6.556;2022-11-15T06:56:03;7.65;;;5.55;;
8564;SDS011;4320;51.498;6.556;2022-11-15T06:58:30;7.57;;;6.15;;
8564;SDS011;4320;51.498;6.556;2022-11-15T07:01:00;9.00;;;6.20;;
8564;SDS011;4320;51.498;6.556;2022-11-15T07:03:30;7.00;;;6.18;;
8564;SDS011;4320;51.498;6.556;2022-11-15T07:05:57;9.55;;;6.30;;
8564;SDS011;4320;51.498;6.556;2022-11-15T07:08:23;9.27;;;6.93;;
8564;SDS011;4320;51.498;6.556;2022-11-15T07:10:51;10.70;;;6.80;;
8564;SDS011;4320;51.498;6.556;2022-11-15T07:13:17;7.93;;;6.32;;
8564;SDS011;4320;51.498;6.556;2022-11-15T07:15:43;8.02;;;6.03;;
8564;SDS011;4320;51.498;6.556;2022-11-15T07:18:08;5.40;;;4.90;;
8564;SDS011;4320;51.498;6.556;2022-11-15T07:20:34;7.55;;;5.95;;
8564;SDS011;4320;51.498;6.556;2022-11-15T07:23:00;9.43;;;5.82;;
8564;SDS011;4320;51.498;6.556;2022-11-15T07:25:28;6.55;;;5.47;;
8564;SDS011;4320;51.498;6.556;2022-11-15T07:27:57;7.47;;;5.78;;
8564;SDS011;4320;51.498;6.556;2022-11-15T07:30:24;7.47;;;5.68;;
8564;SDS011;4320;51.498;6.556;2022-11-15T07:32:54;8.85;;;5.38;;
8564;SDS011;4320;51.498;6.556;2022-11-15T07:35:23;5.32;;;4.82;;
8564;SDS011;4320;51.498;6.556;2022-11-15T07:37:54;6.60;;;4.10;;
8564;SDS011;4320;51.498;6.556;2022-11-15T07:40:21;7.47;;;3.67;;
8564;SDS011;4320;51.498;6.556;2022-11-15T07:42:46;4.35;;;3.30;;
8564;SDS011;4320;51.498;6.556;2022-11-15T07:45:19;4.22;;;3.45;;
8564;SDS011;4320;51.498;6.556;2022-11-15T07:47:46;4.00;;;3.08;;
8564;SDS011;4320;51.498;6.556;2022-11-15T07:50:15;3.88;;;3.10;;
8564;SDS011;4320;51.498;6.556;2022-11-15T07:52:42;4.57;;;3.58;;
8564;SDS011;4320;51.498;6.556;2022-11-15T07:55:08;3.03;;;2.72;;
8564;SDS011;4320;51.498;6.556;2022-11-15T07:57:34;4.18;;;3.10;;
8564;SDS011;4320;51.498;6.556;2022-11-15T08:00:00;5.43;;;3.58;;
8564;SDS011;4320;51.498;6.556;2022-11-15T08:02:26;4.85;;;3.40;;
8564;SDS011;4320;51.498;6.556;2022-11-15T08:04:52;4.13;;;3.03;;
8564;SDS011;4320;51.498;6.556;2022-11-15T08:07:18;4.60;;;2.70;;
8564;SDS011;4320;51.498;6.556;2022-11-15T08:09:43;6.20;;;3.00;;
8564;SDS011;4320;51.498;6.556;2022-11-15T08:12:09;5.20;;;3.47;;
8564;SDS011;4320;51.498;6.556;2022-11-15T08:14:35;5.18;;;3.97;;
8564;SDS011;4320;51.498;6.556;2022-11-15T08:17:00;4.53;;;3.28;;
8564;SDS011;4320;51.498;6.556;2022-11-15T08:19:26;6.53;;;3.08;;
8564;SDS011;4320;51.498;6.556;2022-11-15T08:21:52;4.28;;;3.03;;
8564;SDS011;4320;51.498;6.556;2022-11-15T08:24:18;2.70;;;2.45;;
8564;SDS011;4320;51.498;6.556;2022-11-15T08:26:43;6.60;;;2.67;;
8564;SDS011;4320;51.498;6.556;2022-11-15T08:29:09;2.53;;;2.33;;
8564;SDS011;4320;51.498;6.556;2022-11-15T08:31:35;2.70;;;2.30;;
8564;SDS011;4320;51.498;6.556;2022-11-15T08:34:01;2.30;;;2.10;;
8564;SDS011;4320;51.498;6.556;2022-11-15T08:36:28;6.25;;;1.92;;
8564;SDS011;4320;51.498;6.556;2022-11-15T08:38:53;3.08;;;1.90;;
8564;SDS011;4320;51.498;6.556;2022-11-15T08:41:24;2.38;;;1.65;;
8564;SDS011;4320;51.498;6.556;2022-11-15T08:43:52;8.27;;;1.85;;
8564;SDS011;4320;51.498;6.556;2022-11-15T08:46:18;3.38;;;1.85;;
8564;SDS011;4320;51.498;6.556;2022-11-15T08:48:46;2.80;;;1.65;;
8564;SDS011;4320;51.498;6.556;2022-11-15T08:51:12;4.32;;;2.40;;
8564;SDS011;4320;51.498;6.556;2022-11-15T08:53:38;5.47;;;2.00;;
8564;SDS011;4320;51.498;6.556;2022-11-15T08:56:07;3.45;;;2.00;;
8564;SDS011;4320;51.498;6.556;2022-11-15T08:58:34;3.90;;;1.95;;
8564;SDS011;4320;51.498;6.556;2022-11-15T09:01:00;1.80;;;1.70;;
8564;SDS011;4320;51.498;6.556;2022-11-15T09:03:26;3.35;;;2.35;;
8564;SDS011;4320;51.498;6.556;2022-11-15T09:05:55;5.50;;;2.03;;
8564;SDS011;4320;51.498;6.556;2022-11-15T09:08:25;2.40;;;2.20;;
8564;SDS011;4320;51.498;6.556;2022-11-15T09:10:55;3.20;;;1.92;;
8564;SDS011;4320;51.498;6.556;2022-11-15T09:13:21;2.63;;;2.10;;
8564;SDS011;4320;51.498;6.556;2022-11-15T09:15:47;3.83;;;1.95;;
8564;SDS011;4320;51.498;6.556;2022-11-15T09:18:12;4.47;;;2.40;;
8564;SDS011;4320;51.498;6.556;2022-11-15T09:20:38;2.75;;;2.10;;
8564;SDS011;4320;51.498;6.556;2022-11-15T09:23:04;3.40;;;1.80;;
8564;SDS011;4320;51.498;6.556;2022-11-15T09:25:30;6.70;;;1.85;;
8564;SDS011;4320;51.498;6.556;2022-11-15T09:27:56;1.95;;;1.52;;
8564;SDS011;4320;51.498;6.556;2022-11-15T09:30:23;5.93;;;2.10;;
8564;SDS011;4320;51.498;6.556;2022-11-15T09:32:49;2.60;;;2.17;;
8564;SDS011;4320;51.498;6.556;2022-11-15T09:35:15;3.05;;;1.77;;
8564;SDS011;4320;51.498;6.556;2022-11-15T09:37:41;3.10;;;1.60;;
8564;SDS011;4320;51.498;6.556;2022-11-15T09:40:13;2.30;;;1.60;;
8564;SDS011;4320;51.498;6.556;2022-11-15T09:48:36;2.05;;;1.85;;
8564;SDS011;4320;51.498;6.556;2022-11-15T09:51:26;1.65;;;1.52;;
8564;SDS011;4320;51.498;6.556;2022-11-15T09:53:58;2.65;;;1.80;;
8564;SDS011;4320;51.498;6.556;2022-11-15T09:56:30;1.83;;;1.63;;
8564;SDS011;4320;51.498;6.556;2022-11-15T10:04:48;1.52;;;1.30;;
8564;SDS011;4320;51.498;6.556;2022-11-15T10:07:25;2.05;;;1.40;;
8564;SDS011;4320;51.498;6.556;2022-11-15T10:10:15;1.40;;;1.23;;
8564;SDS011;4320;51.498;6.556;2022-11-15T10:12:51;1.70;;;1.20;;
8564;SDS011;4320;51.498;6.556;2022-11-15T10:15:18;2.20;;;1.20;;
8564;SDS011;4320;51.498;6.556;2022-11-15T10:21:00;2.30;;;1.45;;
8564;SDS011;4320;51.498;6.556;2022-11-15T10:23:38;1.85;;;1.40;;
8564;SDS011;4320;51.498;6.556;2022-11-15T10:26:04;1.30;;;1.20;;
8564;SDS011;4320;51.498;6.556;2022-11-15T10:28:36;2.08;;;1.40;;
8564;SDS011;4320;51.498;6.556;2022-11-15T10:31:01;3.00;;;1.30;;
8564;SDS011;4320;51.498;6.556;2022-11-15T10:33:31;4.20;;;1.50;;
8564;SDS011;4320;51.498;6.556;2022-11-15T10:41:16;4.43;;;1.98;;
8564;SDS011;4320;51.498;6.556;2022-11-15T10:44:21;2.13;;;1.67;;
8564;SDS011;4320;51.498;6.556;2022-11-15T10:56:50;3.85;;;1.50;;
8564;SDS011;4320;51.498;6.556;2022-11-15T10:59:21;1.95;;;1.42;;
8564;SDS011;4320;51.498;6.556;2022-11-15T11:01:51;2.95;;;1.77;;
8564;SDS011;4320;51.498;6.556;2022-11-15T11:04:17;3.92;;;1.50;;
8564;SDS011;4320;51.498;6.556;2022-11-15T11:06:54;3.63;;;1.65;;
8564;SDS011;4320;51.498;6.556;2022-11-15T11:11:49;3.58;;;1.70;;
8564;SDS011;4320;51.498;6.556;2022-11-15T11:14:21;3.50;;;1.50;;
8564;SDS011;4320;51.498;6.556;2022-11-15T11:25:26;1.90;;;1.70;;
8564;SDS011;4320;51.498;6.556;2022-11-15T11:33:16;2.45;;;1.67;;
8564;SDS011;4320;51.498;6.556;2022-11-15T11:50:15;2.22;;;1.88;;
8564;SDS011;4320;51.498;6.556;2022-11-15T11:52:56;3.15;;;1.90;;
8564;SDS011;4320;51.498;6.556;2022-11-15T11:55:37;1.83;;;1.67;;
8564;SDS011;4320;51.498;6.556;2022-11-15T12:01:14;2.10;;;1.77;;
8564;SDS011;4320;51.498;6.556;2022-11-15T12:03:54;4.03;;;1.73;;
8564;SDS011;4320;51.498;6.556;2022-11-15T12:09:32;1.65;;;1.40;;
8564;SDS011;4320;51.498;6.556;2022-11-15T12:12:11;1.60;;;1.10;;
8564;SDS011;4320;51.498;6.556;2022-11-15T12:17:10;1.63;;;1.33;;
8564;SDS011;4320;51.498;6.556;2022-11-15T12:19:37;1.77;;;1.50;;
8564;SDS011;4320;51.498;6.556;2022-11-15T12:22:15;3.20;;;1.40;;
8564;SDS011;4320;51.498;6.556;2022-11-15T12:25:01;2.58;;;1.30;;
8564;SDS011;4320;51.498;6.556;2022-11-15T12:27:39;4.40;;;1.38;;
8564;SDS011;4320;51.498;6.556;2022-11-15T12:30:27;2.90;;;1.67;;
8564;SDS011;4320;51.498;6.556;2022-11-15T12:33:28;2.85;;;1.30;;
8564;SDS011;4320;51.498;6.556;2022-11-15T12:36:01;3.35;;;1.63;;
8564;SDS011;4320;51.498;6.556;2022-11-15T12:41:32;2.50;;;1.40;;
8564;SDS011;4320;51.498;6.556;2022-11-15T12:43:59;9.63;;;1.30;;
8564;SDS011;4320;51.498;6.556;2022-11-15T12:49:01;2.80;;;1.20;;
8564;SDS011;4320;51.498;6.556;2022-11-15T13:02:30;4.93;;;1.50;;
8564;SDS011;4320;51.498;6.556;2022-11-15T13:17:42;2.60;;;1.20;;
8564;SDS011;4320;51.498;6.556;2022-11-15T13:28:10;2.63;;;1.38;;
8564;SDS011;4320;51.498;6.556;2022-11-15T13:30:49;2.95;;;1.25;;
8564;SDS011;4320;51.498;6.556;2022-11-15T13:33:19;3.13;;;1.23;;
8564;SDS011;4320;51.498;6.556;2022-11-15T13:35:56;2.30;;;1.50;;
8564;SDS011;4320;51.498;6.556;2022-11-15T13:40:54;8.80;;;1.40;;
8564;SDS011;4320;51.498;6.556;2022-11-15T13:48:31;5.15;;;1.45;;
8564;SDS011;4320;51.498;6.556;2022-11-15T13:50:58;5.40;;;2.25;;
8564;SDS011;4320;51.498;6.556;2022-11-15T13:53:26;8.25;;;1.52;;
8564;SDS011;4320;51.498;6.556;2022-11-15T13:55:52;2.67;;;1.20;;
8564;SDS011;4320;51.498;6.556;2022-11-15T13:58:20;5.60;;;1.08;;
8564;SDS011;4320;51.498;6.556;2022-11-15T14:00:46;2.63;;;1.63;;
8564;SDS011;4320;51.498;6.556;2022-11-15T14:06:01;3.22;;;1.50;;
8564;SDS011;4320;51.498;6.556;2022-11-15T14:08:29;3.67;;;1.50;;
8564;SDS011;4320;51.498;6.556;2022-11-15T14:11:15;3.88;;;1.85;;
8564;SDS011;4320;51.498;6.556;2022-11-15T14:13:42;5.18;;;1.20;;
8564;SDS011;4320;51.498;6.556;2022-11-15T14:16:44;3.95;;;1.75;;
8564;SDS011;4320;51.498;6.556;2022-11-15T14:24:39;4.32;;;2.55;;
8564;SDS011;4320;51.498;6.556;2022-11-15T14:27:16;1.65;;;1.33;;
8564;SDS011;4320;51.498;6.556;2022-11-15T14:29:41;2.50;;;1.20;;
8564;SDS011;4320;51.498;6.556;2022-11-15T14:32:17;4.70;;;1.70;;
8564;SDS011;4320;51.498;6.556;2022-11-15T14:34:45;4.88;;;1.70;;
8564;SDS011;4320;51.498;6.556;2022-11-15T14:39:48;2.80;;;1.63;;
8564;SDS011;4320;51.498;6.556;2022-11-15T14:42:14;5.70;;;2.00;;
8564;SDS011;4320;51.498;6.556;2022-11-15T14:44:40;6.53;;;1.63;;
8564;SDS011;4320;51.498;6.556;2022-11-15T14:47:06;2.47;;;1.55;;
8564;SDS011;4320;51.498;6.556;2022-11-15T14:49:31;3.67;;;1.40;;
8564;SDS011;4320;51.498;6.556;2022-11-15T14:51:57;6.22;;;2.03;;
8564;SDS011;4320;51.498;6.556;2022-11-15T14:54:22;4.95;;;1.80;;
8564;SDS011;4320;51.498;6.556;2022-11-15T14:56:48;2.65;;;1.42;;
8564;SDS011;4320;51.498;6.556;2022-11-15T14:59:14;2.45;;;1.42;;
8564;SDS011;4320;51.498;6.556;2022-11-15T15:01:39;3.72;;;1.95;;
8564;SDS011;4320;51.498;6.556;2022-11-15T15:04:05;8.27;;;1.85;;
8564;SDS011;4320;51.498;6.556;2022-11-15T15:06:31;3.15;;;1.65;;
8564;SDS011;4320;51.498;6.556;2022-11-15T15:08:56;2.47;;;1.70;;
8564;SDS011;4320;51.498;6.556;2022-11-15T15:11:23;4.95;;;2.53;;
8564;SDS011;4320;51.498;6.556;2022-11-15T15:13:51;5.57;;;1.73;;
8564;SDS011;4320;51.498;6.556;2022-11-15T15:16:17;3.13;;;1.90;;
8564;SDS011;4320;51.498;6.556;2022-11-15T15:18:44;2.58;;;1.60;;
8564;SDS011;4320;51.498;6.556;2022-11-15T15:21:22;5.15;;;2.45;;
8564;SDS011;4320;51.498;6.556;2022-11-15T15:23:50;4.70;;;2.30;;
8564;SDS011;4320;51.498;6.556;2022-11-15T15:26:16;3.08;;;1.77;;
8564;SDS011;4320;51.498;6.556;2022-11-15T15:28:42;3.08;;;1.63;;
8564;SDS011;4320;51.498;6.556;2022-11-15T15:31:09;2.85;;;1.70;;
8564;SDS011;4320;51.498;6.556;2022-11-15T15:33:35;4.20;;;2.50;;
8564;SDS011;4320;51.498;6.556;2022-11-15T15:36:01;3.55;;;2.20;;
8564;SDS011;4320;51.498;6.556;2022-11-15T15:38:27;4.50;;;2.42;;
8564;SDS011;4320;51.498;6.556;2022-11-15T15:40:53;4.00;;;2.10;;
8564;SDS011;4320;51.498;6.556;2022-11-15T15:43:19;6.57;;;2.58;;
8564;SDS011;4320;51.498;6.556;2022-11-15T15:45:45;4.07;;;2.53;;
8564;SDS011;4320;51.498;6.556;2022-11-15T15:48:12;2.97;;;2.35;;
8564;SDS011;4320;51.498;6.556;2022-11-15T15:50:42;6.28;;;2.58;;
8564;SDS011;4320;51.498;6.556;2022-11-15T15:53:08;2.40;;;2.10;;
8564;SDS011;4320;51.498;6.556;2022-11-15T15:55:35;6.30;;;2.50;;
8564;SDS011;4320;51.498;6.556;2022-11-15T15:58:02;5.55;;;2.72;;
8564;SDS011;4320;51.498;6.556;2022-11-15T16:00:28;2.72;;;2.28;;
8564;SDS011;4320;51.498;6.556;2022-11-15T16:02:54;6.00;;;2.30;;
8564;SDS011;4320;51.498;6.556;2022-11-15T16:05:20;7.03;;;2.25;;
8564;SDS011;4320;51.498;6.556;2022-11-15T16:07:47;3.67;;;2.33;;
8564;SDS011;4320;51.498;6.556;2022-11-15T16:10:17;4.40;;;2.53;;
8564;SDS011;4320;51.498;6.556;2022-11-15T16:12:43;3.65;;;2.35;;
8564;SDS011;4320;51.498;6.556;2022-11-15T16:15:09;6.50;;;2.60;;
8564;SDS011;4320;51.498;6.556;2022-11-15T16:17:35;8.10;;;2.50;;
8564;SDS011;4320;51.498;6.556;2022-11-15T16:20:04;4.30;;;2.60;;
8564;SDS011;4320;51.498;6.556;2022-11-15T16:22:31;4.25;;;2.42;;
8564;SDS011;4320;51.498;6.556;2022-11-15T16:24:56;3.10;;;2.50;;
8564;SDS011;4320;51.498;6.556;2022-11-15T16:27:22;6.00;;;3.42;;
8564;SDS011;4320;51.498;6.556;2022-11-15T16:29:48;3.22;;;2.30;;
8564;SDS011;4320;51.498;6.556;2022-11-15T16:32:14;4.00;;;2.10;;
8564;SDS011;4320;51.498;6.556;2022-11-15T16:34:40;4.18;;;2.30;;
8564;SDS011;4320;51.498;6.556;2022-11-15T16:37:22;4.65;;;2.42;;
8564;SDS011;4320;51.498;6.556;2022-11-15T16:39:48;3.55;;;2.72;;
8564;SDS011;4320;51.498;6.556;2022-11-15T16:42:14;3.60;;;2.30;;
8564;SDS011;4320;51.498;6.556;2022-11-15T16:44:40;3.72;;;1.98;;
8564;SDS011;4320;51.498;6.556;2022-11-15T16:47:10;3.15;;;2.22;;
8564;SDS011;4320;51.498;6.556;2022-11-15T16:49:42;2.72;;;2.17;;
8564;SDS011;4320;51.498;6.556;2022-11-15T16:52:08;5.82;;;2.67;;
8564;SDS011;4320;51.498;6.556;2022-11-15T16:54:33;3.13;;;2.80;;
8564;SDS011;4320;51.498;6.556;2022-11-15T16:56:59;8.35;;;3.35;;
8564;SDS011;4320;51.498;6.556;2022-11-15T16:59:25;4.53;;;2.90;;
8564;SDS011;4320;51.498;6.556;2022-11-15T17:01:51;4.53;;;2.50;;
8564;SDS011;4320;51.498;6.556;2022-11-15T17:04:17;6.80;;;3.00;;
8564;SDS011;4320;51.498;6.556;2022-11-15T17:06:45;4.38;;;2.92;;
8564;SDS011;4320;51.498;6.556;2022-11-15T17:09:12;8.20;;;3.00;;
8564;SDS011;4320;51.498;6.556;2022-11-15T17:11:40;4.97;;;2.80;;
8564;SDS011;4320;51.498;6.556;2022-11-15T17:14:06;3.72;;;2.70;;
8564;SDS011;4320;51.498;6.556;2022-11-15T17:16:32;2.80;;;2.50;;
8564;SDS011;4320;51.498;6.556;2022-11-15T17:18:59;4.38;;;2.35;;
8564;SDS011;4320;51.498;6.556;2022-11-15T17:21:25;2.35;;;2.15;;
8564;SDS011;4320;51.498;6.556;2022-11-15T17:23:52;4.30;;;2.38;;
8564;SDS011;4320;51.498;6.556;2022-11-15T17:26:18;6.15;;;2.55;;
8564;SDS011;4320;51.498;6.556;2022-11-15T17:28:44;4.13;;;2.13;;
8564;SDS011;4320;51.498;6.556;2022-11-15T17:31:11;3.20;;;2.40;;
8564;SDS011;4320;51.498;6.556;2022-11-15T17:33:38;4.10;;;2.20;;
8564;SDS011;4320;51.498;6.556;2022-11-15T17:36:06;3.17;;;1.90;;
8564;SDS011;4320;51.498;6.556;2022-11-15T17:38:33;2.15;;;1.98;;
8564;SDS011;4320;51.498;6.556;2022-11-15T17:41:05;4.35;;;2.08;;
8564;SDS011;4320;51.498;6.556;2022-11-15T17:43:35;2.22;;;1.98;;
8564;SDS011;4320;51.498;6.556;2022-11-15T17:46:09;3.25;;;1.75;;
8564;SDS011;4320;51.498;6.556;2022-11-15T17:48:37;2.80;;;2.60;;
8564;SDS011;4320;51.498;6.556;2022-11-15T17:51:04;3.55;;;2.47;;